Hawaii METAR Reports

 

PHOG - Kahului, Hawaii, USA
Distance from station: WNW 8mi, 13km
Updated: Tue, 25-Jul-2017 9:54am HST
Partly Cloudy
Partly Cloudy
 Wind from ENE
Wind: ENE 17 mph , 28 km/h, Gust: 32 mph , 52 km/h
Temperature: 84°F , 29°C
Heat Index: 88°F , 31°C
Dew Point: 70°F , 21°C
Humidity: 62%
Barometer: 30.03 inHg , 1016.9 hPa
Clouds: Partly Cloudy
Visibility: 10 miles , 16 km
Cloud details: Few Clouds 2500 ft
Partly Cloudy 4500 ft
2017/07/25 19:54 PHOG 251954Z 06015G28KT 10SM FEW025 SCT045 29/21 A3003 RMK AO2 PK WND 07028/1920 SLP173 T02940206
PHJH - Lahaina/West Mau, Hawaii, USA
Distance from station: WNW 24mi, 39km
Updated: Tue, 25-Jul-2017 9:50am HST
Nearby showers, Mostly cloudy
Nearby showers, Mostly cloudy
 Wind from ENE
Wind: ENE 17 mph , 28 km/h
Temperature: 82°F , 28°C
Heat Index: 85°F , 29°C
Dew Point: 68°F , 20°C
Humidity: 62%
Barometer: 30.05 inHg , 1017.6 hPa
Summary: Nearby Showers
Clouds: Mostly Cloudy
Visibility: 15 miles , 24 km
Cloud details: Few Clouds 1500 ft
Partly Cloudy 3000 ft
Mostly Cloudy 4500 ft
2017/07/25 19:50 PHJH 251950Z 07015KT 15SM VCSH FEW015 SCT030 BKN045 28/20 A3005 RMK VCSH E
 
PHNY - Lanai City Airpo, Hawaii, USA
Distance from station: W 40mi, 65km
Updated: Tue, 25-Jul-2017 9:56am HST
Overcast
Overcast
 Wind from W
Wind: W 6 mph , 9 km/h
Temperature: 77°F , 25°C
Dew Point: 72°F , 22°C
Humidity: 83%
Barometer: 30.10 inHg , 1019.3 hPa
Clouds: Overcast
Visibility: 10 miles , 16 km
Cloud details: Overcast 2300 ft
2017/07/25 19:56 PHNY 251956Z AUTO 26005KT 10SM OVC023 25/22 A3010 RMK AO2 SLP171 T02500217
PHMK - Molokai, Hawaii, USA
Distance from station: WNW 55mi, 88km
Updated: Tue, 25-Jul-2017 9:54am HST
Few Clouds
Few Clouds
 Wind from NNE
Wind: NNE 13 mph , 20 km/h, Gust: 25 mph , 41 km/h
Temperature: 84°F , 29°C
Heat Index: 88°F , 31°C
Dew Point: 70°F , 21°C
Humidity: 62%
Barometer: 30.05 inHg , 1017.6 hPa
Clouds: Few Clouds
Visibility: 10 miles , 16 km
Cloud details: Few Clouds 3000 ft
2017/07/25 19:54 PHMK 251954Z 03011G22KT 10SM FEW030 29/21 A3005 RMK AO2 SLP174 T02890206 $
 
PHKO - Kailua/Kona, Hawaii, USA
Distance from station: SSE 79mi, 128km
Updated: Tue, 25-Jul-2017 9:53am HST
Few Clouds
Few Clouds
 Wind from S
Wind: S 12 mph , 19 km/h
Temperature: 84°F , 29°C
Heat Index: 89°F , 32°C
Dew Point: 72°F , 22°C
Humidity: 66%
Barometer: 29.98 inHg , 1015.2 hPa
Clouds: Few Clouds
Visibility: 10 miles , 16 km
Cloud details: Few Clouds 6000 ft
2017/07/25 19:53 PHKO 251953Z 18010KT 10SM FEW060 29/22 A2998 RMK AO2 SLP154 T02890217
PHSF - Bradshaw Aaf/Haw, Hawaii, USA
Distance from station: SE 90mi, 145km
Updated: Tue, 25-Jul-2017 9:56am HST
Clear
Clear
 Wind from S
Wind: S 15 mph , 24 km/h, Gust: 21 mph , 33 km/h
Temperature: 75°F , 24°C
Dew Point: 45°F , 7°C
Humidity: 34%
Barometer: 30.35 inHg , 1027.8 hPa
Clouds: Clear
Visibility: 10 miles , 16 km
2017/07/25 19:56 PHSF 251956Z AUTO 18013G18KT 10SM CLR 24/07 A3035 RMK AO2 SLP152 WND DATA ESTMD T02370073 $
 
PHNG - Kaneohe Mcas, Hawaii, USA
Distance from station: WNW 102mi, 164km
Updated: Tue, 25-Jul-2017 9:57am HST
Overcast
Overcast
 Wind from E
Wind: E 13 mph , 20 km/h, Gust: 23 mph , 37 km/h
Temperature: 82°F , 28°C
Heat Index: 90°F , 32°C
Dew Point: 77°F , 25°C
Humidity: 84%
Barometer: 30.04 inHg , 1017.3 hPa
Clouds: Overcast
Visibility: 7 miles , 11 km
Cloud details: Few Clouds 1900 ft
Mostly Cloudy 3800 ft
Overcast 7000 ft
2017/07/25 19:57 PHNG 251957Z 10011G20KT 7SM FEW019 BKN038 OVC070 28/25 A3004 RMK SLP168 T02760247
PHNL - Honolulu, Hawaii, USA
Distance from station: WNW 108mi, 174km
Updated: Tue, 25-Jul-2017 9:53am HST
Partly Cloudy
Partly Cloudy
 Wind from ENE
Wind: ENE 21 mph , 33 km/h, Gust: 29 mph , 46 km/h
Temperature: 84°F , 29°C
Heat Index: 86°F , 30°C
Dew Point: 66°F , 19°C
Humidity: 55%
Barometer: 30.04 inHg , 1017.3 hPa
Clouds: Partly Cloudy
Visibility: 10 miles , 16 km
Cloud details: Few Clouds 2500 ft
Partly Cloudy 4500 ft
2017/07/25 19:53 PHNL 251953Z 07018G25KT 10SM FEW025 SCT045 29/19 A3004 RMK AO2 SLP171 T02890194 $
 
PHTO - Hilo, Hawaii, USA
Distance from station: SE 114mi, 183km
Updated: Tue, 25-Jul-2017 10:16am HST
Overcast
Overcast
 Wind from ESE
Wind: ESE 8 mph , 13 km/h
Temperature: 81°F , 27°C
Heat Index: 85°F , 29°C
Dew Point: 72°F , 22°C
Humidity: 74%
Barometer: 30.07 inHg , 1018.3 hPa
Clouds: Overcast
Visibility: 10 miles , 16 km
Cloud details: Partly Cloudy 2800 ft
Overcast 3600 ft
2017/07/25 20:16 PHTO 252016Z 11007KT 10SM SCT028 OVC036 27/22 A3007 RMK AO2 T02720217
PHJR - Kalaeloa, Hawaii, USA
Distance from station: WNW 117mi, 189km
Updated: Tue, 25-Jul-2017 9:53am HST
Partly Cloudy
Partly Cloudy
 Wind from E
Wind: E 8 mph , 13 km/h, Gust: 16 mph , 26 km/h
Temperature: 84°F , 29°C
Heat Index: 87°F , 31°C
Dew Point: 68°F , 20°C
Humidity: 58%
Barometer: 30.05 inHg , 1017.6 hPa
Clouds: Partly Cloudy
Visibility: 10 miles , 16 km
Cloud details: Partly Cloudy 3500 ft
2017/07/25 19:53 PHJR 251953Z 10007G14KT 060V120 10SM SCT035 29/20 A3005 RMK AO2 SLP182 T02940200 $
 
PHHI - Wheeler Afb/Oahu, Hawaii, USA
Distance from station: WNW 120mi, 193km
Updated: Tue, 25-Jul-2017 9:58am HST
Mostly Cloudy
Mostly Cloudy
 Wind from ESE
Wind: ESE 10 mph , 17 km/h, Gust: 17 mph , 28 km/h
Temperature: 81°F , 27°C
Heat Index: 85°F , 29°C
Dew Point: 70°F , 21°C
Humidity: 70%
Barometer: 30.05 inHg , 1017.6 hPa
Clouds: Mostly Cloudy
Visibility: 10 miles , 16 km
Cloud details: Mostly Cloudy 2400 ft
2017/07/25 19:58 PHHI 251958Z AUTO 11009G15KT 10SM BKN024 27/21 A3005 RMK AO2 SLP163 T02670207 $
PHLI - Lihue/Kauai Is, Hawaii, USA
Distance from station: WNW 209mi, 336km
Updated: Tue, 25-Jul-2017 9:53am HST
Overcast
Overcast
 Wind from ENE
Wind: ENE 14 mph , 22 km/h
Temperature: 84°F , 29°C
Heat Index: 92°F , 33°C
Dew Point: 75°F , 24°C
Humidity: 74%
Barometer: 30.08 inHg , 1018.6 hPa
Clouds: Overcast
Visibility: 10 miles , 16 km
Cloud details: Overcast 5000 ft
2017/07/25 19:53 PHLI 251953Z 07012KT 10SM OVC050 29/24 A3008 RMK AO2 SLP184 T02890244
 
PHBK - Barking Sands/Ka, Hawaii, USA
Distance from station: WNW 237mi, 382km
Updated: Tue, 25-Jul-2017 9:56am HST
Mostly Cloudy
Mostly Cloudy
 Wind from NW
Wind: NW 6 mph , 9 km/h
Temperature: 84°F , 29°C
Heat Index: 90°F , 32°C
Dew Point: 73°F , 23°C
Humidity: 70%
Barometer: 30.05 inHg , 1017.6 hPa
Clouds: Mostly Cloudy
Visibility: 10 miles , 16 km
Cloud details: Mostly Cloudy 4900 ft
Mostly Cloudy 6000 ft
Mostly Cloudy 8000 ft
2017/07/25 19:56 PHBK 251956Z AUTO 31005KT 10SM BKN049 BKN060 BKN080 29/23 A3005 RMK AO2 SLP178 T02890228